Latest Coastal Weather Observations for Moorabbin Airport

IDV60701

Issued at 10:41 am EDT Friday 12 February 2016 (issued every 10 minutes, with the page automatically refreshed every 10 minutes)

About coastal observations | Map of coastal stations | Coastal observations for VIC | Marine services | Other Formats
Station Details ID: 086077 Name: MOORABBIN AIRPORT Lat: -37.98 Lon: 145.10 Height: 12.1 m
Data from the previous 72 hours. | See also: Recent months at Moorabbin Airport
Date/Time
EDT
Temp

°C
Wind Pressure Rain
since 9am
mm
Weather Cloud Vis
km
Sea
Height
m
Swell
Dir
 
Speed
knots
Gust
knots
hPa Trend Height
m
Period
s
Dir
12/10:30am 20.7 SE 6 12 1016.0 - 0.0 - - 10 - - - -
12/10:00am 20.1 E 8 11 1016.4 - 0.0 - Partly cloudy 10 - - - -
12/09:30am 19.2 ESE 8 12 1016.6 - 0.0 - Cloudy 10 - - - -
12/09:00am 18.6 ESE 7 9 1016.6 - 0.0 - Mostly cloudy 10 - - - -
12/08:30am 17.3 E 4 4 1016.7 - 0.0 - Cloudy 10 - - - -
12/08:00am 16.1 CALM 0 0 1016.6 - 0.0 - Partly cloudy 10 - - - -
12/07:30am 14.4 E 1 3 1016.5 - 0.0 - - 10 - - - -
12/07:00am 14.7 ESE 3 3 1016.5 - 0.0 - - 10 - - - -
12/06:30am 15.1 SSE 3 4 1016.4 - 0.0 - Partly cloudy 10 - - - -
12/06:00am 15.1 SSW 4 5 1016.1 - 0.0 - Mostly cloudy 10 - - - -
12/05:30am 15.0 E 3 3 1015.8 - 0.0 - - 10 - - - -
12/05:00am 15.7 SE 5 6 1015.7 - 0.0 - Partly cloudy 10 - - - -
12/04:30am 16.4 SSE 6 8 1015.9 - 0.0 - Partly cloudy 10 - - - -
12/04:00am 15.9 S 6 7 1015.9 - 0.0 - - 10 - - - -
12/03:30am 16.1 S 5 6 1016.0 - 0.0 - - 10 - - - -
12/03:00am 15.9 SSW 5 6 1016.2 - 0.0 - Partly cloudy 10 - - - -
12/02:30am 15.7 S 4 5 1016.2 - 0.0 - - 10 - - - -
12/02:00am 15.8 SSE 4 5 1016.4 - 0.0 - - 10 - - - -
12/01:30am 16.9 S 5 7 1016.8 - 0.0 - - 10 - - - -
12/01:00am 16.6 S 6 8 1017.2 - 0.0 - - 10 - - - -
12/12:30am 17.3 SSE 7 8 1017.3 - 0.0 - - 10 - - - -
12/12:00am 17.4 SSE 7 10 1017.4 - 0.0 - - 10 - - - -
 
Date/Time
EDT
Temp

°C
Wind Pressure Rain
since 9am
mm
Weather Cloud Vis
km
Sea
Height
m
Swell
Dir
 
Speed
knots
Gust
knots
hPa Trend Height
m
Period
s
Dir
11/11:30pm 17.4 SE 7 10 1017.6 - 0.0 - Partly cloudy 10 - - - -
11/11:00pm 18.1 SSE 10 14 1017.8 - 0.0 - Partly cloudy 10 - - - -
11/10:30pm 18.1 SSE 9 12 1017.9 - 0.0 - - 10 - - - -
11/10:00pm 18.3 SSE 9 13 1017.8 - 0.0 - - 10 - - - -
11/09:30pm 18.7 SSE 9 12 1017.4 - 0.0 - - 10 - - - -
11/09:00pm 19.1 SSE 10 14 1016.7 - 0.0 - - 10 - - - -
11/08:30pm 19.6 SE 12 16 1016.4 - 0.0 - - 10 - - - -
11/08:00pm 20.7 S 12 16 1016.2 - 0.0 - - 10 - - - -
11/07:30pm 21.6 S 13 17 1015.9 - 0.0 - Partly cloudy 10 - - - -
11/07:00pm 22.6 S 12 18 1015.6 - 0.0 - Partly cloudy 10 - - - -
11/06:30pm 22.8 S 14 19 1015.2 - 0.0 - Partly cloudy 10 - - - -
11/06:00pm 23.3 S 15 19 1014.9 - 0.0 - - 10 - - - -
11/05:30pm 23.4 S 15 20 1014.9 - 0.0 - - 10 - - - -
11/05:00pm 23.9 SSW 16 21 1014.9 - 0.0 - - 10 - - - -
11/04:30pm 25.4 SSW 17 22 1014.8 - 0.0 - - 10 - - - -
11/04:00pm 24.2 SW 15 21 1014.8 - 0.0 - - 10 - - - -
11/03:30pm 24.3 SW 13 19 1014.8 - 0.0 - - 10 - - - -
11/03:00pm 23.4 SW 13 18 1015.1 - 0.0 - - 10 - - - -
11/02:30pm 23.8 SW 14 17 1015.4 - 0.0 - - 10 - - - -
11/02:00pm 22.6 SW 15 19 1015.6 - 0.0 - - 10 - - - -
11/01:30pm 23.4 SW 12 15 1015.6 - 0.0 - Partly cloudy 10 - - - -
11/01:00pm 23.4 SW 11 15 1015.8 - 0.0 - Partly cloudy 10 - - - -
11/12:30pm 22.8 SW 11 15 1016.1 - 0.0 - - 10 - - - -
11/12:00pm 21.9 SSW 11 15 1016.7 - 0.0 - Partly cloudy 10 - - - -
11/11:30am 21.9 SE 10 15 1017.0 - 0.0 - Partly cloudy 10 - - - -
11/11:00am 22.0 SSE 7 11 1017.2 - 0.0 - Partly cloudy 10 - - - -
11/10:30am 21.0 ESE 10 15 1017.2 - 0.0 - Partly cloudy 10 - - - -
11/10:00am 20.6 SSE 6 9 1017.3 - 0.0 - Partly cloudy 10 - - - -
11/09:30am 19.3 SE 9 13 1017.4 - 0.0 - Partly cloudy 10 - - - -
11/09:00am 19.3 ESE 9 12 1017.4 - 0.0 - Partly cloudy 10 - - - -
11/08:30am 19.4 ESE 7 11 1017.2 - 0.0 - Cloudy 10 - - - -
11/08:00am 18.3 SE 5 7 1017.1 - 0.0 - Partly cloudy 10 - - - -
11/07:30am 16.8 SE 5 6 1016.8 - 0.0 - Partly cloudy 10 - - - -
11/07:00am 16.6 SE 7 8 1016.5 - 0.0 - Partly cloudy 10 - - - -
11/06:30am 16.1 SE 5 6 1016.2 - 0.0 - Partly cloudy 10 - - - -
11/06:00am 16.4 ESE 5 5 1015.8 - 0.0 - Cloudy 10 - - - -
11/05:30am 16.0 ESE 4 5 1015.7 - 0.0 - Partly cloudy 10 - - - -
11/05:00am 15.5 ESE 4 5 1015.5 - 0.0 - Partly cloudy 10 - - - -
11/04:30am 16.2 SE 5 6 1015.4 - 0.0 - Partly cloudy 10 - - - -
11/04:00am 17.2 SSE 6 8 1015.3 - 0.0 - Partly cloudy 10 - - - -
11/03:30am 17.5 SSE 6 7 1015.4 - 0.0 - Cloudy 10 - - - -
11/03:00am 16.2 SSE 5 6 1015.6 - 0.0 - Partly cloudy 10 - - - -
11/02:30am 16.2 ESE 5 6 1015.8 - 0.0 - Cloudy 10 - - - -
11/02:00am 16.3 SE 5 5 1016.0 - 0.0 - Partly cloudy 10 - - - -
11/01:30am 16.4 SE 5 6 1016.2 - 0.0 - Partly cloudy 10 - - - -
11/01:00am 17.6 SE 5 6 1016.4 - 0.0 - Cloudy 10 - - - -
11/12:30am 16.6 SE 5 6 1016.5 - 0.0 - Partly cloudy 10 - - - -
11/12:00am 16.8 SE 5 7 1016.6 - 0.0 - Mostly clear 10 - - - -
 
Date/Time
EDT
Temp

°C
Wind Pressure Rain
since 9am
mm
Weather Cloud Vis
km
Sea
Height
m
Swell
Dir
 
Speed
knots
Gust
knots
hPa Trend Height
m
Period
s
Dir
10/11:30pm 17.1 SE 6 8 1016.6 - 0.0 - - 10 - - - -
10/11:00pm 17.5 SSE 6 8 1016.6 - 0.0 - - 10 - - - -
10/10:30pm 18.0 SSE 7 10 1016.6 - 0.0 - - 10 - - - -
10/10:00pm 18.3 SSE 9 11 1016.5 - 0.0 - - 10 - - - -
10/09:30pm 18.4 SSE 7 10 1016.0 - 0.0 - - 10 - - - -
10/09:00pm 18.9 SE 9 13 1015.6 - 0.0 - - 10 - - - -
10/08:30pm 19.7 SE 11 13 1015.4 - 0.0 - - 10 - - - -
10/08:00pm 20.8 SE 11 13 1015.0 - 0.0 - - 10 - - - -
10/07:30pm 21.9 SSW 8 11 1014.6 - 0.0 - - 10 - - - -
10/07:00pm 21.7 SSW 10 13 1014.6 - 0.0 - - 10 - - - -
10/06:30pm 22.0 SW 11 14 1014.4 - 0.0 - - 10 - - - -
10/06:00pm 22.7 SW 11 14 1014.2 - 0.0 - - 10 - - - -
10/05:30pm 22.7 SW 11 15 1014.2 - 0.0 - - 10 - - - -
10/05:00pm 22.6 SW 13 17 1014.2 - 0.0 - - 10 - - - -
10/04:30pm 22.2 SW 13 16 1014.2 - 0.0 - - 10 - - - -
10/04:00pm 22.0 SSW 14 17 1014.4 - 0.0 - - 10 - - - -
10/03:30pm 22.2 SSW 12 16 1014.6 - 0.0 - - 10 - - - -
10/03:00pm 22.0 SW 12 17 1014.8 - 0.0 - - 10 - - - -
10/02:30pm 22.0 SSW 11 15 1015.0 - 0.0 - - 10 - - - -
10/02:00pm 23.0 SSW 11 16 1015.0 - 0.0 - - 10 - - - -
10/01:30pm 22.0 SW 11 16 1015.3 - 0.0 - - 10 - - - -
10/01:00pm 21.8 SW 11 15 1015.5 - 0.0 - - 10 - - - -
10/12:30pm 21.7 SW 9 13 1015.8 - 0.0 - - 10 - - - -
10/12:00pm 20.6 SSW 10 13 1016.0 - 0.0 - - 10 - - - -
10/11:30am 20.7 SSW 8 13 1016.1 - 0.0 - Partly cloudy 10 - - - -
10/11:00am 20.4 SW 5 8 1016.3 - 0.0 - Cloudy 10 - - - -
10/10:30am 20.0 ENE 4 7 1016.4 - 0.0 - Cloudy 10 - - - -
10/10:00am 19.2 ESE 5 8 1016.4 - 0.0 - Cloudy 10 - - - -
10/09:30am 18.9 SE 5 8 1016.5 - 0.0 - Cloudy 10 - - - -
10/09:00am 18.8 SSE 5 7 1016.5 - 0.0 - Cloudy 10 - - - -
10/08:30am 18.6 S 6 8 1016.3 - 0.0 - Cloudy 10 - - - -
10/08:00am 18.4 SSE 7 9 1015.8 - 0.0 - Cloudy 10 - - - -
10/07:30am 18.1 SE 7 9 1015.5 - 0.0 - Cloudy 10 - - - -
10/07:00am 18.1 SE 7 8 1015.4 - 0.0 - Cloudy 10 - - - -
10/06:30am 17.9 SSE 6 8 1015.1 - 0.0 - Cloudy 10 - - - -
10/06:00am 17.7 ESE 5 6 1014.8 - 0.0 - Cloudy 10 - - - -
10/05:30am 17.8 ESE 5 6 1014.7 - 0.0 - Cloudy 10 - - - -
10/05:00am 18.6 SE 6 7 1014.9 - 0.0 - Cloudy 10 - - - -
10/04:30am 17.8 SE 6 8 1015.0 - 0.0 - Cloudy 10 - - - -
10/04:00am 17.6 SE 7 8 1015.4 - 0.0 - Cloudy 10 - - - -
10/03:30am 17.3 ESE 4 5 1015.3 - 0.0 - Cloudy 10 - - - -
10/03:00am 17.2 E 5 5 1015.5 - 0.0 - Mostly cloudy 10 - - - -
10/02:36am 16.7 ESE 3 4 1015.7 - 0.0 - Cloudy 10 - - - -
10/02:30am 16.5 ESE 3 4 1015.7 - 0.0 - Partly cloudy 10 - - - -
10/02:00am 16.7 SSE 4 5 1015.9 - 0.0 - Partly cloudy 10 - - - -
10/01:30am 17.2 SSE 5 5 1016.1 - 0.0 - Cloudy 10 - - - -
10/01:00am 17.1 S 4 6 1016.6 - 0.0 - Partly cloudy 10 - - - -
10/12:59am 17.1 S 4 5 1016.6 - 0.0 - Partly cloudy 10 - - - -
10/12:30am 16.9 S 5 5 1016.6 - 0.0 - Partly cloudy 10 - - - -
10/12:00am 16.8 SSE 4 5 1016.7 - 0.0 - - 10 - - - -
 
Date/Time
EDT
Temp

°C
Wind Pressure Rain
since 9am
mm
Weather Cloud Vis
km
Sea
Height
m
Swell
Dir
 
Speed
knots
Gust
knots
hPa Trend Height
m
Period
s
Dir
09/11:30pm 17.3 SSE 5 6 1017.0 - 0.0 - - 10 - - - -
09/11:00pm 17.2 SSE 5 6 1017.3 - 0.0 - - 10 - - - -
09/10:30pm 17.3 SE 5 7 1017.5 - 0.0 - - 10 - - - -
09/10:00pm 18.0 SSE 7 9 1017.5 - 0.0 - - 10 - - - -
09/09:30pm 18.1 SE 8 10 1017.3 - 0.0 - - 10 - - - -
09/09:00pm 18.9 SE 9 11 1017.2 - 0.0 - - 10 - - - -
09/08:30pm 19.7 SE 10 13 1017.1 - 0.0 - - 10 - - - -
09/08:00pm 21.3 SE 10 13 1017.1 - 0.0 - - 10 - - - -
09/07:30pm 22.6 SSE 11 14 1017.0 - 0.0 - - 10 - - - -
09/07:00pm 23.6 SE 11 14 1016.7 - 0.0 - - 10 - - - -
09/06:30pm 24.6 S 9 14 1016.6 - 0.0 - - 10 - - - -
09/06:00pm 23.4 SSW 12 16 1016.6 - 0.0 - - 10 - - - -
09/05:30pm 23.1 SSW 15 19 1017.0 - 0.0 - - 10 - - - -
09/05:00pm 22.5 SSW 16 21 1017.4 - 0.0 - - 10 - - - -
09/04:30pm 22.4 SW 16 21 1017.7 - 0.0 - - 10 - - - -
09/04:00pm 22.5 SW 17 20 1018.1 - 0.0 - - 10 - - - -
09/03:30pm 22.7 SSW 15 19 1018.4 - 0.0 - - 10 - - - -
09/03:00pm 22.2 SW 14 18 1018.7 - 0.0 - - 10 - - - -
09/02:30pm 22.2 SW 13 17 1019.2 - 0.0 - - 10 - - - -
09/02:00pm 21.8 SW 13 17 1019.5 - 0.0 - - 10 - - - -
09/01:30pm 21.5 SW 12 17 1019.8 - 0.0 - - 10 - - - -
09/01:00pm 21.4 SW 12 16 1020.1 - 0.0 - - 10 - - - -
09/12:30pm 21.4 SW 11 14 1020.4 - 0.0 - - 10 - - - -
09/12:00pm 21.7 SW 10 13 1020.7 - 0.0 - - 10 - - - -
09/11:30am 20.7 SW 9 12 1021.0 - 0.0 - - 10 - - - -
09/11:00am 20.4 SSW 9 12 1021.2 - 0.0 - Partly cloudy 10 - - - -

Other Formats:

Comma delimited format used in spreadsheet applications
http://www.bom.gov.au/fwo/IDV60701/IDV60701.94870.axf

JavaScript Object Notation format (JSON) in row-major order
http://www.bom.gov.au/fwo/IDV60701/IDV60701.94870.json